Latest Weather Observations for Mount William

IDV60801

Issued at 2:34 am EST Sunday 20 August 2017 (issued every 30 minutes, with the page automatically refreshed every 10 minutes)

About weather observations | Map of weather stations | Latest weather observations for VIC | Other Formats
Station Details ID: 079103 Name: MOUNT WILLIAM Lat: -37.30 Lon: 142.60 Height: 1150.0 m
Data from the previous 72 hours. | See also: Recent months at Mount William
Date/Time
EST
Temp
°C
App
Temp
°C
Dew
Point
°C
Rel
Hum
%
Delta-T
°C
Wind Press
QNH
hPa
Press
MSL
hPa
Rain since
9am
mm
Dir  Spd
km/h
Gust
km/h
Spd
kts
Gust
kts
20/02:30am -2.3 -7.5 -2.4 99 -0.1 SW 15 19 8 10 - - 12.4
20/02:00am -2.0 -7.1 -2.1 99 -0.1 SW 15 22 8 12 - - 12.4
20/01:30am -2.1 -7.6 -2.2 99 -0.1 SW 17 22 9 12 - - 12.4
20/01:00am -2.2 -7.5 -3.5 91 0.4 SW 15 17 8 9 - - 12.4
20/12:30am -1.8 -7.4 -2.5 95 0.2 SW 17 24 9 13 - - 12.4
20/12:00am -2.0 -7.1 -2.1 99 -0.1 SW 15 20 8 11 - - 12.4
 
Date/Time
EST
Temp
°C
App
Temp
°C
Dew
Point
°C
Rel
Hum
%
Delta-T
°C
Wind Press
QNH
hPa
Press
MSL
hPa
Rain since
9am
mm
Dir  Spd
km/h
Gust
km/h
Spd
kts
Gust
kts
19/11:30pm -1.2 -7.3 -4.0 81 0.9 SW 19 22 10 12 - - 12.4
19/11:00pm -1.3 -8.1 -2.1 94 0.2 SW 24 32 13 17 - - 12.4
19/10:30pm -1.4 -8.5 -1.5 99 0.0 SW 26 30 14 16 - - 12.4
19/10:00pm -1.3 -8.4 -1.4 99 0.0 SW 26 33 14 18 - - 12.4
19/09:30pm -1.2 -7.9 -1.3 99 0.0 SW 24 28 13 15 - - 12.4
19/09:00pm -1.1 -7.4 -1.2 99 0.0 SW 22 26 12 14 - - 12.4
19/08:30pm -1.1 -7.1 -1.2 99 0.0 SW 20 28 11 15 - - 12.4
19/08:00pm -0.9 -7.2 -1.0 99 0.0 S 22 26 12 14 - - 12.4
19/07:30pm -0.9 -7.6 -1.0 99 0.0 S 24 28 13 15 - - 12.4
19/07:00pm -0.7 -7.7 -0.8 99 0.0 SSW 26 30 14 16 - - 12.4
19/06:30pm -0.4 -8.2 -0.5 99 0.0 SSW 30 37 16 20 - - 12.4
19/06:00pm -0.2 -7.5 -0.3 99 0.0 SSW 28 33 15 18 - - 12.4
19/05:30pm 0.0 -6.2 -0.1 99 0.0 SW 22 35 12 19 - - 12.4
19/05:00pm 0.2 -7.5 0.2 100 0.0 SW 30 37 16 20 - - 12.0
19/04:30pm 0.0 -6.2 0.0 100 0.0 SW 22 33 12 18 - - 11.8
19/04:00pm 0.9 -3.0 0.9 100 0.0 WSW 11 24 6 13 - - 11.4
19/03:30pm 0.9 -4.6 0.9 100 0.0 SW 19 28 10 15 - - 10.8
19/03:00pm 0.5 -3.9 0.5 100 0.0 WSW 13 24 7 13 - - 10.2
19/02:30pm 0.6 -4.9 0.6 100 0.0 SW 19 33 10 18 - - 9.6
19/02:00pm 0.5 -4.3 0.5 100 0.0 SW 15 24 8 13 - - 8.6
19/01:30pm 0.6 -3.8 0.6 100 0.0 SW 13 22 7 12 - - 7.2
19/01:00pm 0.0 -5.6 0.0 100 0.0 SW 19 30 10 16 - - 5.6
19/12:30pm 0.0 -3.7 0.0 100 0.0 WSW 9 19 5 10 - - 4.8
19/12:00pm -0.2 -5.4 -0.2 100 0.0 WSW 17 28 9 15 - - 3.6
19/11:30am -0.3 -5.6 -0.3 100 0.0 SSW 17 30 9 16 - - 3.0
19/11:00am -0.5 -5.8 -0.5 100 0.0 SW 17 28 9 15 - - 1.6
19/10:30am -0.5 -5.4 -0.5 100 0.0 SW 15 26 8 14 - - 1.2
19/10:00am -0.7 -6.0 -0.7 100 0.0 SSW 17 28 9 15 - - 0.6
19/09:30am -1.1 -6.5 -1.2 99 0.0 WSW 17 28 9 15 - - 0.0
19/09:00am -1.2 -3.4 -1.3 99 0.0 CALM 0 0 0 0 - - 7.8
19/08:30am -1.1 -3.3 -1.2 99 0.0 CALM 0 0 0 0 - - 7.8
19/08:00am -1.3 -5.9 -1.4 99 0.0 - 13 35 7 19 - - 7.8
19/07:30am -1.4 -7.8 -1.5 99 0.0 WSW 22 33 12 18 - - 7.8
19/07:00am -1.6 -8.8 -1.7 99 0.0 WSW 26 39 14 21 - - 7.8
19/06:30am -1.3 -8.4 -1.4 99 0.0 WSW 26 39 14 21 - - 7.8
19/06:00am -1.3 -8.4 -1.4 99 0.0 WSW 26 43 14 23 - - 7.8
19/05:30am -1.3 -8.8 -1.3 100 0.0 WSW 28 46 15 25 - - 7.8
19/05:00am -1.2 -8.7 -1.2 100 0.0 WSW 28 48 15 26 - - 7.8
19/04:53am -1.4 -8.9 -1.4 100 0.0 WSW 28 48 15 26 - - 7.8
19/04:30am -0.8 -7.5 -0.8 100 0.0 WSW 24 39 13 21 - - 7.8
19/04:00am -1.2 -9.4 -1.2 100 0.0 WSW 32 46 17 25 - - 7.8
19/03:30am -0.9 -8.3 -0.9 100 0.0 WSW 28 46 15 25 - - 7.8
19/03:23am -0.9 -8.7 -0.9 100 0.0 WSW 30 50 16 27 - - 7.8
19/03:00am -0.9 -9.7 -0.9 100 0.0 WSW 35 48 19 26 - - 7.8
19/02:30am -1.0 -9.2 -1.0 100 0.0 WSW 32 46 17 25 - - 7.8
19/02:00am -0.9 -9.3 -0.9 100 0.0 WSW 33 46 18 25 - - 7.8
19/01:30am -0.6 -8.7 -0.6 100 0.0 WSW 32 50 17 27 - - 7.8
19/01:22am -0.6 -8.7 -0.6 100 0.0 WSW 32 50 17 27 - - 7.8
19/01:00am -0.8 -9.2 -0.8 100 0.0 WSW 33 46 18 25 - - 7.8
19/12:30am -0.7 -9.4 -0.7 100 0.0 WSW 35 46 19 25 - - 7.8
19/12:00am -0.6 -7.6 -0.6 100 0.0 WSW 26 39 14 21 - - 7.8
 
Date/Time
EST
Temp
°C
App
Temp
°C
Dew
Point
°C
Rel
Hum
%
Delta-T
°C
Wind Press
QNH
hPa
Press
MSL
hPa
Rain since
9am
mm
Dir  Spd
km/h
Gust
km/h
Spd
kts
Gust
kts
18/11:30pm -0.5 -8.3 -0.5 100 0.0 WSW 30 44 16 24 - - 7.8
18/11:00pm -0.4 -7.0 -0.4 100 0.0 WSW 24 35 13 19 - - 7.8
18/10:35pm -0.3 -7.6 -0.3 100 0.0 WSW 28 50 15 27 - - 7.8
18/10:30pm -0.4 -7.0 -0.4 100 0.0 WSW 24 50 13 27 - - 7.8
18/10:00pm -0.4 -8.5 -0.4 100 0.0 WSW 32 46 17 25 - - 7.8
18/09:37pm -0.4 -7.8 -0.4 100 0.0 WSW 28 48 15 26 - - 7.8
18/09:30pm -0.4 -8.5 -0.4 100 0.0 WSW 32 48 17 26 - - 7.8
18/09:00pm -0.5 -8.8 -0.5 100 0.0 WSW 33 46 18 25 - - 7.8
18/08:30pm -0.7 -9.8 -0.7 100 0.0 WSW 37 52 20 28 - - 7.8
18/08:00pm -0.5 -9.2 -0.5 100 0.0 WSW 35 50 19 27 - - 7.8
18/07:33pm -0.7 -9.8 -0.7 100 0.0 WSW 37 56 20 30 - - 7.8
18/07:30pm -0.7 -10.2 -0.7 100 0.0 WSW 39 56 21 30 - - 7.8
18/07:07pm -0.4 -10.2 -0.4 100 0.0 WSW 41 61 22 33 - - 7.8
18/07:00pm -0.3 -10.5 -0.3 100 0.0 WSW 43 56 23 30 - - 7.8
18/06:39pm -0.3 -9.7 -0.3 100 0.0 SW 39 63 21 34 - - 7.8
18/06:30pm -0.4 -9.5 -0.4 100 0.0 WSW 37 54 20 29 - - 7.8
18/06:02pm -0.2 -8.5 -0.2 100 0.0 SW 33 54 18 29 - - 7.8
18/06:00pm -0.2 -9.6 -0.2 100 0.0 SW 39 54 21 29 - - 7.8
18/05:30pm -0.1 -8.4 -0.1 100 0.0 SW 33 54 18 29 - - 7.6
18/05:13pm 0.0 -6.9 0.0 100 0.0 WSW 26 61 14 33 - - 7.6
18/05:00pm 0.2 -6.7 0.2 100 0.0 WSW 26 43 14 23 - - 7.4
18/04:30pm 0.0 -8.1 0.0 100 0.0 WSW 32 57 17 31 - - 7.0
18/04:00pm -0.2 -10.4 -0.2 100 0.0 SW 43 74 23 40 - - 6.4
18/03:30pm -0.3 -11.8 -0.3 100 0.0 SW 50 70 27 38 - - 5.6
18/03:18pm -0.1 -8.4 -0.1 100 0.0 SW 33 80 18 43 - - 5.4
18/03:00pm 0.1 -7.6 0.1 100 0.0 WSW 30 56 16 30 - - 5.0
18/02:30pm 0.0 -8.6 0.0 100 0.0 WSW 35 59 19 32 - - 4.2
18/02:00pm 0.0 -7.3 0.0 100 0.0 WSW 28 56 15 30 - - 3.2
18/01:41pm 0.0 -7.3 0.0 100 0.0 WSW 28 46 15 25 - - 2.6
18/01:30pm -0.1 -7.0 -0.1 100 0.0 WSW 26 44 14 24 - - 2.2
18/01:10pm -0.2 -8.5 -0.2 100 0.0 WSW 33 54 18 29 - - 2.0
18/01:00pm -0.3 -8.6 -0.3 100 0.0 WSW 33 52 18 28 - - 2.0
18/12:30pm -0.7 -10.6 -0.7 100 0.0 WSW 41 63 22 34 - - 1.8
18/12:01pm -0.3 -9.7 -0.3 100 0.0 SW 39 70 21 38 - - 1.8
18/12:00pm -0.3 -10.1 -0.3 100 0.0 SW 41 70 22 38 - - 1.8
18/11:40am 0.0 -7.3 0.0 100 0.0 WSW 28 52 15 28 - - 1.4
18/11:30am 0.0 -6.5 0.0 100 0.0 W 24 54 13 29 - - 1.2
18/11:00am -0.1 -6.3 -0.1 100 0.0 WSW 22 39 12 21 - - 0.6
18/10:30am -0.1 -5.7 -0.1 100 0.0 WSW 19 41 10 22 - - 0.4
18/10:00am -0.2 -6.0 -0.2 100 0.0 WSW 20 43 11 23 - - 0.0
18/09:42am -0.2 -7.5 -0.2 100 0.0 WSW 28 52 15 28 - - 0.0
18/09:30am -0.4 -6.6 -0.4 100 0.0 WSW 22 50 12 27 - - 0.0
18/09:00am -0.3 -7.3 -0.3 100 0.0 WSW 26 43 14 23 - - 10.2
18/08:31am -0.4 -7.8 -0.4 100 0.0 WSW 28 57 15 31 - - 10.2
18/08:30am -0.4 -7.4 -0.4 100 0.0 WSW 26 57 14 31 - - 10.2
18/08:06am -0.4 -7.8 -0.4 100 0.0 WSW 28 50 15 27 - - 10.2
18/08:00am -0.5 -6.7 -0.5 100 0.0 WSW 22 50 12 27 - - 10.2
18/07:40am -0.5 -7.9 -0.5 100 0.0 WSW 28 48 15 26 - - 10.2
18/07:30am -0.4 -7.0 -0.4 100 0.0 WSW 24 43 13 23 - - 10.2
18/07:03am -0.7 -8.1 -0.7 100 0.0 WSW 28 54 15 29 - - 10.2
18/07:00am -0.7 -7.7 -0.7 100 0.0 WSW 26 54 14 29 - - 10.2
18/06:30am -0.9 -6.6 -0.9 100 0.0 WSW 19 52 10 28 - - 10.2
18/06:00am -0.6 -6.3 -0.6 100 0.0 WSW 19 44 10 24 - - 10.2
18/05:30am -0.2 -6.4 -0.2 100 0.0 WSW 22 63 12 34 - - 10.2
18/05:21am -0.3 -7.6 -0.3 100 0.0 WSW 28 63 15 34 - - 10.2
18/05:00am -0.1 -6.3 -0.1 100 0.0 WSW 22 50 12 27 - - 10.2
18/04:30am -0.1 -6.7 -0.1 100 0.0 WSW 24 41 13 22 - - 10.2
18/04:11am -0.2 -7.5 -0.2 100 0.0 WSW 28 46 15 25 - - 10.2
18/04:00am -0.3 -7.3 -0.3 100 0.0 WSW 26 52 14 28 - - 10.2
18/03:36am -0.6 -8.0 -0.6 100 0.0 WSW 28 46 15 25 - - 10.2
18/03:30am -0.5 -7.5 -0.5 100 0.0 WSW 26 48 14 26 - - 10.2
18/03:16am -0.6 -8.0 -0.6 100 0.0 WSW 28 48 15 26 - - 10.2
18/03:00am -0.4 -6.2 -0.4 100 0.0 WSW 20 44 11 24 - - 10.2
18/02:32am -0.3 -7.6 -0.3 100 0.0 WSW 28 48 15 26 - - 10.2
18/02:30am -0.3 -8.0 -0.3 100 0.0 WSW 30 48 16 26 - - 10.2
18/02:00am -0.3 -8.0 -0.3 100 0.0 WSW 30 56 16 30 - - 10.2
18/01:30am -0.3 -7.6 -0.3 100 0.0 WSW 28 50 15 27 - - 10.2
18/01:00am -0.1 -7.8 -0.1 100 0.0 WSW 30 50 16 27 - - 10.2
18/12:30am -0.1 -8.4 -0.1 100 0.0 WSW 33 54 18 29 - - 10.0
18/12:06am -0.1 -7.8 -0.1 100 0.0 WSW 30 48 16 26 - - 10.0
18/12:00am 0.0 -6.5 0.0 100 0.0 W 24 43 13 23 - - 10.0
 
Date/Time
EST
Temp
°C
App
Temp
°C
Dew
Point
°C
Rel
Hum
%
Delta-T
°C
Wind Press
QNH
hPa
Press
MSL
hPa
Rain since
9am
mm
Dir  Spd
km/h
Gust
km/h
Spd
kts
Gust
kts
17/11:30pm 0.0 -7.7 0.0 100 0.0 W 30 48 16 26 - - 9.8
17/11:00pm 0.0 -9.0 0.0 100 0.0 W 37 67 20 36 - - 9.8
17/10:30pm 0.0 -7.7 0.0 100 0.0 WSW 30 52 16 28 - - 9.6
17/10:00pm 0.0 -8.6 0.0 100 0.0 W 35 57 19 31 - - 9.6
17/09:30pm 0.0 -8.1 0.0 100 0.0 W 32 50 17 27 - - 9.6
17/09:00pm 0.0 -7.7 0.0 100 0.0 WSW 30 48 16 26 - - 9.4
17/08:30pm 0.0 -8.3 0.0 100 0.0 WSW 33 59 18 32 - - 9.4
17/08:15pm 0.1 -7.2 0.1 100 0.0 W 28 52 15 28 - - 9.2
17/08:00pm 0.1 -5.5 0.1 100 0.0 W 19 39 10 21 - - 9.0
17/07:30pm 0.8 -6.8 0.8 100 0.0 W 30 50 16 27 - - 8.4
17/07:00pm 0.5 -7.5 0.5 100 0.0 W 32 57 17 31 - - 8.0
17/06:31pm 0.2 -8.0 0.2 100 0.0 WSW 33 54 18 29 - - 7.6
17/06:30pm 0.2 -8.4 0.2 100 0.0 WSW 35 54 19 29 - - 7.6
17/06:00pm 0.0 -8.3 0.0 100 0.0 WSW 33 56 18 30 - - 7.6
17/05:30pm 0.5 -7.7 0.5 100 0.0 W 33 57 18 31 - - 7.6
17/05:03pm 1.5 -6.0 1.5 100 0.0 W 30 59 16 32 - - 7.6
17/05:00pm 1.6 -5.1 1.6 100 0.0 W 26 46 14 25 - - 7.6
17/04:30pm 1.6 -6.8 1.6 100 0.0 W 35 56 19 30 - - 7.4
17/04:00pm 1.5 -6.9 1.5 100 0.0 W 35 67 19 36 - - 7.2
17/03:30pm 1.2 -8.0 1.2 100 0.0 W 39 57 21 31 - - 7.2
17/03:00pm 1.1 -8.1 1.1 100 0.0 W 39 63 21 34 - - 7.2
17/02:30pm 1.0 -7.9 1.0 100 0.0 W 37 65 20 35 - - 7.0
17/02:04pm 2.2 -5.1 2.2 100 0.0 W 30 48 16 26 - - 5.8
17/02:00pm 2.1 -5.6 2.1 100 0.0 W 32 48 17 26 - - 5.6
17/01:43pm 2.4 -4.9 2.4 100 0.0 W 30 52 16 28 - - 5.6
17/01:30pm 2.4 -4.5 2.4 100 0.0 W 28 46 15 25 - - 5.6
17/01:00pm 2.4 -5.9 2.4 100 0.0 W 35 63 19 34 - - 5.6
17/12:30pm 2.2 -5.7 2.2 100 0.0 W 33 59 18 32 - - 5.4
17/12:00pm 1.4 -6.6 1.4 100 0.0 WSW 33 57 18 31 - - 3.8
17/11:30am 1.3 -7.9 1.3 100 0.0 W 39 69 21 37 - - 2.2
17/11:00am 2.3 -5.6 2.3 100 0.0 W 33 63 18 34 - - 1.0
17/10:30am 2.1 -5.3 2.1 100 0.0 W 30 57 16 31 - - 1.0
17/10:00am 2.0 -5.9 2.0 100 0.0 W 33 54 18 29 - - 1.0
17/09:34am 2.1 -4.9 2.1 100 0.0 W 28 56 15 30 - - 0.6
17/09:30am 2.1 -4.1 2.1 100 0.0 W 24 46 13 25 - - 0.6
17/09:00am 1.9 -4.7 1.9 100 0.0 W 26 43 14 23 - - 26.8
17/08:39am 1.7 -5.3 1.7 100 0.0 W 28 52 15 28 - - 26.8
17/08:30am 1.5 -5.2 1.5 100 0.0 W 26 41 14 22 - - 26.6
17/08:00am 1.5 -6.3 1.5 100 0.0 W 32 56 17 30 - - 26.6
17/07:30am 1.3 -7.5 1.3 100 0.0 W 37 57 20 31 - - 26.6
17/07:00am 1.1 -8.5 1.1 100 0.0 W 41 67 22 36 - - 25.6
17/06:30am 0.7 -8.2 0.7 100 0.0 W 37 61 20 33 - - 24.4
17/06:06am 0.5 -6.7 0.5 100 0.0 WSW 28 50 15 27 - - 23.4
17/06:00am 0.6 -5.5 0.6 100 0.0 WSW 22 41 12 22 - - 23.2
17/05:30am 1.3 -6.6 1.3 100 0.0 W 32 50 17 27 - - 22.2
17/05:08am 2.6 -4.3 2.6 100 0.0 W 28 46 15 25 - - 22.0
17/05:00am 2.6 -5.0 2.6 100 0.0 W 32 48 17 26 - - 22.0
17/04:42am 2.9 -3.9 2.9 100 0.0 W 28 54 15 29 - - 21.8
17/04:30am 3.1 -3.3 3.1 100 0.0 W 26 44 14 24 - - 21.6
17/04:00am 3.0 -4.2 3.0 100 0.0 W 30 61 16 33 - - 21.2
17/03:31am 3.0 -4.2 3.0 100 0.0 W 30 50 16 27 - - 20.8
17/03:30am 3.1 -4.5 3.1 100 0.0 W 32 50 17 27 - - 20.8
17/03:19am 3.0 -3.8 3.0 100 0.0 W 28 50 15 27 - - 20.8
17/03:00am 3.2 -2.4 3.2 100 0.0 W 22 50 12 27 - - 20.2

Other Formats:

Comma delimited format used in spreadsheet applications
http://www.bom.gov.au/fwo/IDV60801/IDV60801.94833.axf

JavaScript Object Notation format (JSON) in row-major order
http://www.bom.gov.au/fwo/IDV60801/IDV60801.94833.json